createdAt,value
2022-08-25T00:00:46.969Z,48.60
2022-08-25T00:03:13.733Z,53.03
2022-08-25T00:05:40.441Z,51.13
2022-08-25T00:08:07.613Z,51.13
2022-08-25T00:10:38.021Z,48.53
2022-08-25T00:13:04.976Z,48.95
2022-08-25T00:15:32.444Z,49.17
2022-08-25T00:18:00.185Z,48.33
2022-08-25T00:20:28.169Z,49.65
2022-08-25T00:22:56.121Z,47.95
2022-08-25T00:25:23.611Z,45.72
2022-08-25T00:27:51.360Z,50.20
2022-08-25T00:30:18.512Z,50.45
2022-08-25T00:32:48.893Z,47.10
2022-08-25T00:35:23.121Z,49.58
2022-08-25T00:37:49.908Z,48.72
2022-08-25T00:40:16.621Z,48.70
2022-08-25T00:42:43.271Z,49.67
2022-08-25T00:45:18.928Z,51.55
2022-08-25T00:47:45.582Z,46.25
2022-08-25T00:50:12.283Z,43.33
2022-08-25T00:52:42.352Z,44.15
2022-08-25T00:55:10.065Z,45.90
2022-08-25T00:58:06.827Z,48.85
2022-08-25T01:00:37.100Z,44.28
2022-08-25T01:03:04.008Z,48.47
2022-08-25T01:05:30.648Z,41.78
2022-08-25T01:07:58.610Z,35.28
2022-08-25T01:10:26.120Z,36.13
2022-08-25T01:12:52.915Z,32.75
2022-08-25T01:15:19.649Z,32.40
2022-08-25T01:17:51.145Z,32.92
2022-08-25T01:20:19.902Z,34.97
2022-08-25T01:22:49.231Z,39.30
2022-08-25T01:25:31.286Z,43.67
2022-08-25T01:27:57.925Z,42.35
2022-08-25T01:30:24.737Z,40.38
2022-08-25T01:32:51.367Z,42.15
2022-08-25T01:35:19.180Z,44.60
2022-08-25T01:37:45.857Z,49.78
2022-08-25T01:40:12.973Z,43.38
2022-08-25T01:42:46.990Z,36.65
2022-08-25T01:45:14.020Z,44.65
2022-08-25T01:47:40.632Z,37.38
2022-08-25T01:50:07.734Z,38.80
2022-08-25T01:52:39.420Z,46.17
2022-08-25T01:55:06.777Z,37.45
2022-08-25T01:57:33.553Z,37.03
2022-08-25T02:00:01.914Z,41.38
2022-08-25T02:02:28.618Z,40.80
2022-08-25T02:04:58.450Z,40.22
2022-08-25T02:07:26.836Z,35.53
2022-08-25T02:09:54.780Z,49.55
2022-08-25T02:12:21.592Z,41.90
2022-08-25T02:14:48.867Z,56.28
2022-08-25T02:17:15.478Z,47.05
2022-08-25T02:19:42.085Z,40.53
2022-08-25T02:22:08.758Z,39.22
2022-08-25T02:24:35.363Z,40.20
2022-08-25T02:27:04.085Z,40.88
2022-08-25T02:29:30.799Z,37.00
2022-08-25T02:31:57.581Z,49.20
2022-08-25T02:34:24.192Z,54.00
2022-08-25T02:36:50.853Z,52.30
2022-08-25T02:39:17.455Z,41.33
2022-08-25T02:41:44.273Z,46.05
2022-08-25T02:44:11.108Z,44.50
2022-08-25T02:46:37.810Z,42.10
2022-08-25T02:49:05.346Z,40.13
2022-08-25T02:51:32.153Z,41.97
2022-08-25T02:53:59.652Z,42.28
2022-08-25T02:56:26.402Z,44.42
2022-08-25T02:58:53.043Z,35.42
2022-08-25T03:01:19.746Z,43.50
2022-08-25T03:03:48.754Z,43.63
2022-08-25T03:06:18.545Z,41.60
2022-08-25T03:08:45.461Z,38.75
2022-08-25T03:11:12.387Z,45.30
2022-08-25T03:13:39.007Z,38.03
2022-08-25T03:16:10.851Z,38.03
2022-08-25T03:18:39.282Z,39.40
2022-08-25T03:21:07.127Z,34.05
2022-08-25T03:23:33.928Z,36.13
2022-08-25T03:26:19.235Z,37.03
2022-08-25T03:28:45.878Z,42.67
2022-08-25T03:31:12.531Z,42.72
2022-08-25T03:33:40.212Z,47.30
2022-08-25T03:36:07.454Z,50.97
2022-08-25T03:38:34.133Z,42.92
2022-08-25T03:41:02.253Z,53.13
2022-08-25T03:43:28.902Z,44.28
2022-08-25T03:45:55.559Z,40.55
2022-08-25T03:48:22.270Z,40.55
2022-08-25T03:50:51.946Z,43.55
2022-08-25T03:53:19.565Z,40.25
2022-08-25T03:55:46.336Z,40.40
2022-08-25T03:58:12.936Z,41.85
2022-08-25T04:00:39.616Z,41.42
2022-08-25T04:03:06.545Z,38.75
2022-08-25T04:05:33.181Z,41.80
2022-08-25T04:08:01.885Z,42.22
2022-08-25T04:10:29.016Z,41.80
2022-08-25T04:12:56.250Z,40.20
2022-08-25T04:15:23.089Z,43.67
2022-08-25T04:17:51.859Z,38.08
2022-08-25T04:20:19.003Z,37.70
2022-08-25T04:22:45.723Z,39.63
2022-08-25T04:25:12.561Z,39.65
2022-08-25T04:27:39.145Z,37.45
2022-08-25T04:30:06.694Z,34.88
2022-08-25T04:32:33.398Z,37.92
2022-08-25T04:35:00.103Z,32.90
2022-08-25T04:37:26.758Z,36.80
2022-08-25T04:39:53.405Z,33.00
2022-08-25T04:42:20.414Z,33.92
2022-08-25T04:44:47.019Z,41.78
2022-08-25T04:47:13.699Z,39.80
2022-08-25T04:49:40.620Z,34.95
2022-08-25T04:52:13.092Z,37.42
2022-08-25T04:54:41.575Z,35.72
2022-08-25T04:57:08.178Z,34.70
2022-08-25T04:59:34.956Z,37.58
2022-08-25T05:02:05.431Z,34.53
2022-08-25T05:04:33.438Z,35.33
2022-08-25T05:07:00.236Z,36.58
2022-08-25T05:09:27.211Z,32.92
2022-08-25T05:11:54.926Z,32.97
2022-08-25T05:14:23.195Z,31.58
2022-08-25T05:16:52.578Z,32.60
2022-08-25T05:19:19.525Z,31.48
2022-08-25T05:21:46.143Z,37.00
2022-08-25T05:24:12.755Z,36.53
2022-08-25T05:26:39.780Z,34.72
2022-08-25T05:29:06.913Z,31.10
2022-08-25T06:47:09.857Z,20.65
2022-08-25T06:49:36.611Z,20.48
2022-08-25T06:52:03.635Z,20.42
2022-08-25T06:54:30.323Z,19.98
2022-08-25T06:56:57.045Z,17.85
2022-08-25T06:59:25.233Z,19.55
2022-08-25T07:01:59.470Z,16.42
2022-08-25T07:04:26.515Z,16.88
2022-08-25T07:06:53.123Z,18.38
2022-08-25T07:09:19.750Z,18.20
2022-08-25T07:11:46.639Z,19.85
2022-08-25T07:14:16.201Z,25.65
2022-08-25T07:16:48.597Z,22.65
2022-08-25T07:19:16.314Z,22.75
2022-08-25T07:21:45.910Z,27.67
2022-08-25T07:24:13.591Z,25.15
2022-08-25T07:26:42.120Z,21.27
2022-08-25T07:29:17.484Z,24.33
2022-08-25T07:31:44.415Z,25.63
2022-08-25T07:34:29.702Z,21.58
2022-08-25T07:36:56.837Z,22.58
2022-08-25T07:39:23.788Z,24.35
2022-08-25T07:41:52.197Z,22.00
2022-08-25T07:44:19.112Z,22.40
2022-08-25T07:46:45.840Z,23.63
2022-08-25T07:49:17.151Z,24.15
2022-08-25T07:52:03.963Z,23.17
2022-08-25T07:54:34.052Z,22.05
2022-08-25T07:57:03.164Z,20.85
2022-08-25T07:59:29.841Z,20.80
2022-08-25T08:01:57.411Z,21.85
2022-08-25T08:04:24.626Z,20.15
2022-08-25T08:06:54.571Z,18.52
2022-08-25T08:09:21.265Z,17.10
2022-08-25T08:11:53.863Z,19.60
2022-08-25T08:14:21.146Z,18.77
2022-08-25T08:16:47.861Z,19.13
2022-08-25T08:19:30.016Z,15.57
2022-08-25T08:21:56.625Z,17.02
2022-08-25T08:24:44.367Z,18.85
2022-08-25T08:27:11.627Z,16.52
2022-08-25T08:29:39.148Z,15.63
2022-08-25T08:32:06.971Z,17.10
2022-08-25T08:34:34.057Z,19.75
2022-08-25T08:37:00.749Z,17.23
2022-08-25T08:39:28.262Z,16.33
2022-08-25T08:42:18.285Z,16.73
2022-08-25T08:44:44.787Z,16.80
2022-08-25T08:47:27.418Z,16.35
2022-08-25T08:50:30.693Z,15.40
2022-08-25T08:55:35.810Z,15.30
2022-08-25T08:58:09.957Z,16.23
2022-08-25T09:00:40.794Z,14.77
2022-08-25T09:03:13.223Z,15.45
2022-08-25T09:05:46.859Z,15.18
2022-08-25T09:08:14.777Z,13.63
2022-08-25T09:11:00.329Z,13.80
2022-08-25T09:13:36.084Z,13.32
2022-08-25T09:16:46.834Z,12.90
2022-08-25T09:19:21.270Z,12.15
2022-08-25T09:21:58.384Z,10.82
2022-08-25T09:24:57.401Z,13.07
2022-08-25T09:27:33.066Z,12.77
2022-08-25T09:30:10.901Z,12.98
2022-08-25T09:32:52.494Z,12.23
2022-08-25T09:35:27.771Z,11.68
2022-08-25T09:38:09.284Z,10.52
2022-08-25T09:40:38.196Z,13.05
2022-08-25T09:43:31.929Z,11.40
2022-08-25T09:46:26.955Z,12.25
2022-08-25T09:51:42.995Z,12.38
2022-08-25T09:54:13.782Z,11.85
2022-08-25T09:56:57.745Z,12.20
2022-08-25T09:59:34.751Z,12.47
2022-08-25T10:02:27.685Z,12.82
2022-08-25T10:04:54.451Z,11.88
2022-08-25T10:07:21.007Z,11.40
2022-08-25T10:10:01.806Z,11.32
2022-08-25T10:12:37.482Z,11.35
2022-08-25T10:15:30.469Z,11.48
2022-08-25T10:18:19.049Z,11.30
2022-08-25T10:20:53.361Z,11.95
2022-08-25T10:23:20.010Z,11.82
2022-08-25T10:25:57.827Z,12.68
2022-08-25T10:28:38.476Z,12.85
2022-08-25T10:31:41.960Z,11.95
2022-08-25T10:34:31.659Z,10.80
2022-08-25T10:37:32.723Z,12.52
2022-08-25T10:40:11.034Z,14.02
2022-08-25T10:42:57.428Z,13.45
2022-08-25T10:45:43.486Z,15.43
2022-08-25T10:48:32.096Z,14.93
2022-08-25T10:51:19.583Z,14.77
2022-08-25T10:54:19.674Z,16.30
2022-08-25T10:57:01.950Z,15.52
2022-08-25T10:59:58.472Z,15.85
2022-08-25T11:02:41.405Z,19.10
2022-08-25T11:05:24.611Z,16.02
2022-08-25T11:07:54.499Z,16.27
2022-08-25T11:10:43.945Z,14.75
2022-08-25T11:13:16.568Z,18.05
2022-08-25T11:16:15.878Z,15.85
2022-08-25T11:19:11.230Z,16.58
2022-08-25T11:21:43.210Z,17.52
2022-08-25T11:24:13.029Z,16.23
2022-08-25T11:26:40.535Z,16.77
2022-08-25T11:29:16.615Z,16.35
2022-08-25T11:31:50.762Z,15.93
2022-08-25T11:34:19.852Z,16.58
2022-08-25T11:36:52.060Z,16.73
2022-08-25T11:39:37.434Z,15.55
2022-08-25T11:42:34.117Z,14.48
2022-08-25T11:45:13.067Z,15.85
2022-08-25T11:48:11.521Z,15.02
2022-08-25T11:51:03.077Z,15.20
2022-08-25T11:53:33.654Z,13.82
2022-08-25T11:56:09.049Z,14.63
2022-08-25T11:58:51.847Z,14.50
2022-08-25T12:01:40.249Z,13.85
2022-08-25T12:04:15.193Z,13.60
2022-08-25T12:07:06.943Z,14.18
2022-08-25T12:09:54.600Z,14.07
2022-08-25T12:12:31.628Z,13.63
2022-08-25T12:15:54.187Z,14.15
2022-08-25T12:18:23.752Z,13.63
2022-08-25T12:20:54.433Z,14.02
2022-08-25T12:23:44.794Z,12.95
2022-08-25T12:26:42.778Z,11.13
2022-08-25T12:29:40.874Z,10.40
2022-08-25T12:32:41.173Z,10.43
2022-08-25T12:35:10.888Z,11.15
2022-08-25T12:37:57.507Z,12.25
2022-08-25T12:40:31.883Z,10.70
2022-08-25T12:43:20.583Z,11.48
2022-08-25T12:46:20.463Z,10.90
2022-08-25T12:49:00.911Z,12.00
2022-08-25T12:51:33.508Z,11.32
2022-08-25T12:54:22.920Z,11.23
2022-08-25T12:56:57.912Z,11.05
2022-08-25T12:59:34.000Z,10.65
2022-08-25T13:02:09.997Z,11.65
2022-08-25T13:05:15.425Z,11.10
2022-08-25T13:07:57.260Z,9.73
2022-08-25T13:10:34.258Z,13.43
2022-08-25T13:13:10.812Z,12.07
2022-08-25T13:15:41.509Z,11.98
2022-08-25T13:18:29.087Z,10.85
2022-08-25T13:21:27.832Z,11.52
2022-08-25T13:24:01.479Z,11.38
2022-08-25T13:26:34.116Z,10.95
2022-08-25T13:29:13.614Z,10.18
2022-08-25T13:31:54.093Z,11.30
2022-08-25T13:34:23.575Z,10.50
2022-08-25T13:37:31.242Z,10.77
2022-08-25T13:40:27.095Z,10.10
2022-08-25T13:42:57.579Z,12.82
2022-08-25T13:45:26.370Z,10.70
2022-08-25T13:47:55.827Z,10.68
2022-08-25T13:50:26.465Z,10.13
2022-08-25T13:52:57.034Z,11.13
2022-08-25T13:55:27.474Z,11.07
2022-08-25T13:57:55.781Z,10.70
2022-08-25T14:00:43.482Z,10.82
2022-08-25T14:03:34.229Z,10.13
2022-08-25T14:06:25.672Z,10.52
2022-08-25T14:08:58.598Z,9.77
2022-08-25T14:11:45.073Z,10.07
2022-08-25T14:14:24.819Z,9.80
2022-08-25T14:17:21.917Z,10.85
2022-08-25T14:19:53.548Z,9.52
2022-08-25T14:22:20.197Z,10.30
2022-08-25T14:24:46.822Z,10.20
2022-08-25T14:27:13.445Z,10.32
2022-08-25T14:29:41.319Z,10.05
2022-08-25T14:32:08.014Z,11.43
2022-08-25T14:34:36.960Z,12.00
2022-08-25T14:37:18.849Z,10.90
2022-08-25T14:39:46.087Z,11.52
2022-08-25T14:42:13.588Z,12.13
2022-08-25T14:44:40.236Z,10.93
2022-08-25T14:47:07.145Z,11.63
2022-08-25T14:49:36.476Z,12.30
2022-08-25T14:52:18.781Z,11.57
2022-08-25T14:54:49.254Z,11.77
2022-08-25T14:57:21.205Z,13.30
2022-08-25T14:59:51.834Z,11.80
2022-08-25T15:02:20.126Z,12.45
2022-08-25T15:04:54.308Z,11.02
2022-08-25T15:07:40.629Z,12.98
2022-08-25T15:10:07.846Z,11.80
2022-08-25T15:12:46.861Z,12.65
2022-08-25T15:15:14.441Z,11.98
2022-08-25T15:17:41.941Z,11.65
2022-08-25T15:20:11.459Z,12.18
2022-08-25T15:22:38.156Z,11.00
2022-08-25T15:25:05.133Z,10.82
2022-08-25T15:27:31.868Z,11.82
2022-08-25T15:29:58.523Z,10.68
2022-08-25T15:32:25.166Z,10.13
2022-08-25T15:34:54.546Z,10.55
2022-08-25T15:37:21.162Z,10.77
2022-08-25T15:39:48.994Z,10.88
2022-08-25T15:42:16.867Z,11.40
2022-08-25T15:44:53.452Z,9.90
2022-08-25T15:47:21.216Z,9.68
2022-08-25T15:49:47.855Z,10.18
2022-08-25T15:52:14.491Z,10.18
2022-08-25T15:54:41.163Z,10.40
2022-08-25T15:57:09.197Z,10.70
2022-08-25T15:59:40.257Z,9.65
2022-08-25T16:02:15.154Z,9.43
2022-08-25T16:04:42.074Z,10.15
2022-08-25T16:07:09.531Z,9.73
2022-08-25T16:09:40.990Z,9.95
2022-08-25T16:12:08.701Z,9.00
2022-08-25T16:14:35.693Z,9.02
2022-08-25T16:17:02.334Z,9.13
2022-08-25T16:19:29.091Z,10.00
2022-08-25T16:21:55.757Z,10.25
2022-08-25T16:24:22.361Z,9.57
2022-08-25T16:26:50.535Z,8.60
2022-08-25T16:29:18.755Z,9.23
2022-08-25T16:31:48.168Z,9.45
2022-08-25T16:34:22.390Z,9.27
2022-08-25T16:36:52.486Z,9.07
2022-08-25T16:39:20.625Z,9.13
2022-08-25T16:41:47.414Z,8.45
2022-08-25T16:44:14.183Z,7.82
2022-08-25T16:46:42.362Z,8.85
2022-08-25T16:49:11.312Z,8.30
2022-08-25T16:51:38.465Z,8.02
2022-08-25T16:54:24.246Z,8.10
2022-08-25T16:56:55.162Z,9.68
2022-08-25T16:59:23.572Z,9.30
2022-08-25T17:01:50.457Z,7.40
2022-08-25T17:04:17.525Z,8.73
2022-08-25T17:06:51.629Z,8.98
2022-08-25T17:09:23.776Z,8.40
2022-08-25T17:11:54.299Z,8.85
2022-08-25T17:14:21.626Z,8.25
2022-08-25T17:16:50.679Z,8.70
2022-08-25T17:19:17.624Z,8.75
2022-08-25T17:21:46.467Z,9.13
2022-08-25T17:24:13.642Z,8.93
2022-08-25T17:26:41.449Z,8.60
2022-08-25T17:29:08.964Z,8.18
2022-08-25T17:31:39.847Z,10.50
2022-08-25T17:34:10.294Z,9.52
2022-08-25T17:36:37.076Z,8.63
2022-08-25T17:39:04.260Z,6.97
2022-08-25T17:41:32.152Z,10.48
2022-08-25T17:43:59.321Z,9.90
2022-08-25T17:46:27.182Z,9.63
2022-08-25T17:48:53.908Z,9.10
2022-08-25T17:51:20.642Z,9.40
2022-08-25T17:53:48.807Z,9.85
2022-08-25T17:56:18.536Z,10.32
2022-08-25T17:58:45.395Z,10.90
2022-08-25T18:01:17.213Z,10.70
2022-08-25T18:03:44.250Z,10.63
2022-08-25T18:06:15.091Z,10.82
2022-08-25T18:08:42.950Z,10.50
2022-08-25T18:11:09.907Z,9.10
2022-08-25T18:13:37.960Z,10.35
2022-08-25T18:16:05.193Z,9.93
2022-08-25T18:18:34.486Z,8.75
2022-08-25T18:21:02.180Z,9.05
2022-08-25T18:23:29.838Z,8.85
2022-08-25T18:26:00.767Z,7.75
2022-08-25T18:28:28.952Z,8.23
2022-08-25T18:30:55.882Z,8.68
2022-08-25T18:33:23.092Z,9.07
2022-08-25T18:35:49.741Z,10.73
2022-08-25T18:38:35.042Z,8.00
2022-08-25T18:41:05.510Z,8.45
2022-08-25T18:43:34.025Z,9.90
2022-08-25T18:46:01.602Z,11.57
2022-08-25T18:48:28.381Z,8.45
2022-08-25T18:50:55.248Z,9.90
2022-08-25T18:53:51.146Z,8.73
2022-08-25T18:56:22.479Z,8.27
2022-08-25T18:58:49.079Z,6.93
2022-08-25T19:01:21.636Z,7.43
2022-08-25T19:03:49.432Z,7.95
2022-08-25T19:06:16.967Z,8.63
2022-08-25T19:08:45.185Z,10.40
2022-08-25T19:11:12.100Z,9.65
2022-08-25T19:13:38.995Z,10.98
2022-08-25T19:16:17.705Z,13.13
2022-08-25T19:18:47.708Z,14.55
2022-08-25T19:21:14.784Z,12.35
2022-08-25T19:23:41.503Z,10.35
2022-08-25T19:26:17.002Z,10.55
2022-08-25T19:28:45.581Z,10.18
2022-08-25T19:31:18.729Z,11.93
2022-08-25T19:33:49.548Z,13.80
2022-08-25T19:36:16.771Z,10.80
2022-08-25T19:38:44.495Z,11.48
2022-08-25T19:41:14.422Z,11.80
2022-08-25T19:43:55.165Z,9.98
2022-08-25T19:46:32.067Z,8.88
2022-08-25T19:49:06.961Z,13.07
2022-08-25T19:51:36.289Z,11.20
2022-08-25T19:54:03.328Z,11.30
2022-08-25T19:56:30.843Z,13.52
2022-08-25T19:58:57.499Z,14.27
2022-08-25T20:01:24.506Z,13.75
2022-08-25T20:03:52.157Z,11.48
2022-08-25T20:06:18.859Z,10.10
2022-08-25T20:08:45.600Z,10.88
2022-08-25T20:11:12.314Z,10.45
2022-08-25T20:13:39.134Z,11.50
2022-08-25T20:16:06.104Z,11.75
2022-08-25T20:18:32.757Z,11.00
2022-08-25T20:21:00.376Z,11.30
2022-08-25T20:23:46.267Z,10.65
2022-08-25T20:26:12.912Z,12.27
2022-08-25T20:28:42.071Z,10.75
2022-08-25T20:31:09.074Z,12.13
2022-08-25T20:33:36.134Z,10.68
2022-08-25T20:36:04.781Z,12.18
2022-08-25T20:38:32.294Z,10.35
2022-08-25T20:41:00.295Z,13.07
2022-08-25T20:43:28.023Z,12.45
2022-08-25T20:46:01.835Z,12.45
2022-08-25T20:48:28.687Z,11.57
2022-08-25T20:50:57.812Z,10.88
2022-08-25T20:53:25.194Z,11.73
2022-08-25T20:55:52.079Z,13.38
2022-08-25T20:58:18.994Z,10.60
2022-08-25T21:00:46.034Z,9.25
2022-08-25T21:03:12.703Z,9.45
2022-08-25T21:05:40.484Z,12.35
2022-08-25T21:08:12.613Z,13.20
2022-08-25T21:10:40.139Z,16.00
2022-08-25T21:13:06.763Z,10.43
2022-08-25T21:15:33.389Z,12.48
2022-08-25T21:17:59.996Z,10.43
2022-08-25T21:20:27.089Z,10.20
2022-08-25T21:22:54.442Z,10.77
2022-08-25T21:25:21.667Z,11.10
2022-08-25T21:27:49.307Z,9.88
2022-08-25T21:30:16.052Z,11.45
2022-08-25T21:32:53.011Z,9.88
2022-08-25T21:35:21.015Z,13.40
2022-08-25T21:37:53.350Z,9.80
2022-08-25T21:40:21.426Z,10.25
2022-08-25T21:42:48.857Z,9.80
2022-08-25T21:45:16.158Z,8.82
2022-08-25T21:47:42.867Z,9.52
2022-08-25T21:50:12.744Z,9.63
2022-08-25T21:52:39.374Z,10.00
2022-08-25T21:55:08.214Z,11.38
2022-08-25T21:57:43.166Z,14.30
2022-08-25T22:00:11.549Z,10.48
2022-08-25T22:02:38.562Z,10.15
2022-08-25T22:05:09.356Z,10.73
2022-08-25T22:07:41.599Z,10.43
2022-08-25T22:10:16.459Z,9.98
2022-08-25T22:12:45.493Z,10.43
2022-08-25T22:15:13.629Z,12.77
2022-08-25T22:17:40.764Z,11.63
2022-08-25T22:20:08.094Z,10.15
2022-08-25T22:22:35.863Z,8.65
2022-08-25T22:25:02.648Z,9.45
2022-08-25T22:27:30.358Z,9.82
2022-08-25T22:29:57.007Z,9.20
2022-08-25T22:32:23.671Z,9.43
2022-08-25T22:34:50.530Z,9.05
2022-08-25T22:37:17.982Z,9.25
2022-08-25T22:39:45.553Z,11.40
2022-08-25T22:42:12.593Z,10.23
2022-08-25T22:44:40.075Z,11.82
2022-08-25T22:47:07.019Z,9.27
2022-08-25T22:49:35.498Z,8.82
2022-08-25T22:52:02.369Z,9.43
2022-08-25T22:54:29.927Z,8.75
2022-08-25T22:56:56.560Z,10.55
2022-08-25T22:59:23.184Z,9.82
2022-08-25T23:01:52.426Z,12.20
2022-08-25T23:04:19.222Z,11.90
2022-08-25T23:06:45.975Z,12.70
2022-08-25T23:09:13.836Z,11.18
2022-08-25T23:11:40.785Z,10.93
2022-08-25T23:14:10.299Z,9.25
2022-08-25T23:16:38.505Z,12.93
2022-08-25T23:19:05.470Z,12.63
2022-08-25T23:21:50.770Z,11.93
2022-08-25T23:24:29.449Z,10.77
2022-08-25T23:26:57.975Z,8.90
2022-08-25T23:29:25.251Z,11.15
2022-08-25T23:31:51.986Z,14.80
2022-08-25T23:34:20.396Z,12.05
2022-08-25T23:36:47.668Z,11.70
2022-08-25T23:39:14.283Z,11.52
2022-08-25T23:41:41.811Z,12.00
2022-08-25T23:44:17.100Z,11.07
2022-08-25T23:46:44.708Z,11.02
2022-08-25T23:49:11.356Z,10.57
2022-08-25T23:51:38.425Z,10.77
2022-08-25T23:54:07.112Z,11.52
2022-08-25T23:56:36.443Z,10.93
2022-08-25T23:59:03.526Z,10.57
